sensor_id;sensor_type;location;lat;lon;timestamp;pressure;altitude;pressure_sealevel;temperature;humidity
54592;BME280;40488;48.558;18.150;2022-10-13T00:01:31;100389.59;;;11.97;78.91
54592;BME280;40488;48.558;18.150;2022-10-13T00:04:00;100392.16;;;11.96;78.94
54592;BME280;40488;48.558;18.150;2022-10-13T00:06:28;100387.84;;;11.90;78.66
54592;BME280;40488;48.558;18.150;2022-10-13T00:08:58;100392.16;;;11.90;78.80
54592;BME280;40488;48.558;18.150;2022-10-13T00:11:27;100379.31;;;11.85;78.89
54592;BME280;40488;48.558;18.150;2022-10-13T00:13:58;100388.63;;;11.76;79.01
54592;BME280;40488;48.558;18.150;2022-10-13T00:16:30;100392.88;;;11.72;79.09
54592;BME280;40488;48.558;18.150;2022-10-13T00:18:59;100392.78;;;11.66;79.24
54592;BME280;40488;48.558;18.150;2022-10-13T00:21:29;100386.91;;;11.70;79.25
54592;BME280;40488;48.558;18.150;2022-10-13T00:23:58;100380.94;;;11.71;79.21
54592;BME280;40488;48.558;18.150;2022-10-13T00:26:26;100379.28;;;11.73;79.02
54592;BME280;40488;48.558;18.150;2022-10-13T00:28:57;100374.13;;;11.70;79.28
54592;BME280;40488;48.558;18.150;2022-10-13T00:31:28;100382.69;;;11.78;79.15
54592;BME280;40488;48.558;18.150;2022-10-13T00:33:59;100369.06;;;11.79;79.20
54592;BME280;40488;48.558;18.150;2022-10-13T00:36:29;100368.19;;;11.79;79.13
54592;BME280;40488;48.558;18.150;2022-10-13T00:38:58;100361.38;;;11.73;79.12
54592;BME280;40488;48.558;18.150;2022-10-13T00:41:27;100377.59;;;11.84;79.02
54592;BME280;40488;48.558;18.150;2022-10-13T00:43:58;100369.94;;;11.83;79.23
54592;BME280;40488;48.558;18.150;2022-10-13T00:46:29;100345.94;;;11.67;79.37
54592;BME280;40488;48.558;18.150;2022-10-13T00:49:03;100374.19;;;11.82;79.10
54592;BME280;40488;48.558;18.150;2022-10-13T00:51:37;100368.19;;;11.79;79.43
54592;BME280;40488;48.558;18.150;2022-10-13T00:54:09;100363.94;;;11.79;79.62
54592;BME280;40488;48.558;18.150;2022-10-13T00:56:39;100363.97;;;11.82;79.29
54592;BME280;40488;48.558;18.150;2022-10-13T00:59:12;100368.19;;;11.77;79.29
54592;BME280;40488;48.558;18.150;2022-10-13T01:01:45;100357.88;;;11.65;79.43
54592;BME280;40488;48.558;18.150;2022-10-13T01:04:15;100368.09;;;11.67;79.71
54592;BME280;40488;48.558;18.150;2022-10-13T01:06:46;100360.44;;;11.65;79.74
54592;BME280;40488;48.558;18.150;2022-10-13T01:09:15;100362.97;;;11.65;79.76
54592;BME280;40488;48.558;18.150;2022-10-13T01:11:57;100360.44;;;11.65;79.58
54592;BME280;40488;48.558;18.150;2022-10-13T01:14:35;100350.16;;;11.62;79.61
54592;BME280;40488;48.558;18.150;2022-10-13T01:17:12;100363.81;;;11.64;79.59
54592;BME280;40488;48.558;18.150;2022-10-13T01:23:11;100353.59;;;11.64;79.58
54592;BME280;40488;48.558;18.150;2022-10-13T01:26:00;100357.84;;;11.67;79.69
54592;BME280;40488;48.558;18.150;2022-10-13T01:31:40;100352.81;;;11.71;79.57
54592;BME280;40488;48.558;18.150;2022-10-13T01:34:16;100350.28;;;11.74;79.46
54592;BME280;40488;48.558;18.150;2022-10-13T01:36:55;100336.59;;;11.69;79.53
54592;BME280;40488;48.558;18.150;2022-10-13T01:39:34;100357.09;;;11.78;79.36
54592;BME280;40488;48.558;18.150;2022-10-13T01:42:11;100358.84;;;11.82;79.37
54592;BME280;40488;48.558;18.150;2022-10-13T01:44:45;100357.16;;;11.84;79.38
54592;BME280;40488;48.558;18.150;2022-10-13T01:47:20;100348.63;;;11.82;79.37
54592;BME280;40488;48.558;18.150;2022-10-13T01:49:52;100353.75;;;11.88;79.19
54592;BME280;40488;48.558;18.150;2022-10-13T01:52:24;100346.91;;;11.86;79.10
54592;BME280;40488;48.558;18.150;2022-10-13T01:54:54;100340.94;;;11.79;78.87
54592;BME280;40488;48.558;18.150;2022-10-13T01:57:31;100342.63;;;11.79;79.02
54592;BME280;40488;48.558;18.150;2022-10-13T02:00:04;100334.97;;;11.80;79.13
54592;BME280;40488;48.558;18.150;2022-10-13T02:02:49;100343.47;;;11.79;79.02
54592;BME280;40488;48.558;18.150;2022-10-13T02:05:26;100333.25;;;11.79;79.05
54592;BME280;40488;48.558;18.150;2022-10-13T02:08:03;100341.75;;;11.78;79.05
54592;BME280;40488;48.558;18.150;2022-10-13T02:10:38;100333.22;;;11.76;78.97
54592;BME280;40488;48.558;18.150;2022-10-13T02:13:11;100331.50;;;11.74;79.18
54592;BME280;40488;48.558;18.150;2022-10-13T02:15:45;100328.13;;;11.73;79.25
54592;BME280;40488;48.558;18.150;2022-10-13T02:18:19;100326.41;;;11.72;79.31
54592;BME280;40488;48.558;18.150;2022-10-13T02:20:49;100319.59;;;11.74;79.38
54592;BME280;40488;48.558;18.150;2022-10-13T02:23:19;100319.56;;;11.71;79.51
54592;BME280;40488;48.558;18.150;2022-10-13T02:25:49;100320.44;;;11.75;79.70
54592;BME280;40488;48.558;18.150;2022-10-13T02:28:18;100320.41;;;11.72;79.89
54592;BME280;40488;48.558;18.150;2022-10-13T02:30:47;100333.25;;;11.73;80.08
54592;BME280;40488;48.558;18.150;2022-10-13T02:33:17;100323.88;;;11.75;80.12
54592;BME280;40488;48.558;18.150;2022-10-13T02:35:46;100326.41;;;11.72;79.97
54592;BME280;40488;48.558;18.150;2022-10-13T02:38:15;100326.41;;;11.72;79.99
54592;BME280;40488;48.558;18.150;2022-10-13T02:40:44;100322.94;;;11.67;80.02
54592;BME280;40488;48.558;18.150;2022-10-13T02:43:13;100312.69;;;11.67;80.14
54592;BME280;40488;48.558;18.150;2022-10-13T02:45:41;100315.31;;;11.72;80.02
54592;BME280;40488;48.558;18.150;2022-10-13T02:48:10;100307.63;;;11.70;80.14
54592;BME280;40488;48.558;18.150;2022-10-13T02:50:40;100311.91;;;11.74;80.15
54592;BME280;40488;48.558;18.150;2022-10-13T02:53:09;100307.66;;;11.76;80.43
54592;BME280;40488;48.558;18.150;2022-10-13T02:55:38;100305.94;;;11.72;80.12
54592;BME280;40488;48.558;18.150;2022-10-13T02:58:06;100311.88;;;11.71;80.28
54592;BME280;40488;48.558;18.150;2022-10-13T03:00:35;100305.94;;;11.71;80.31
54592;BME280;40488;48.558;18.150;2022-10-13T03:03:06;100310.22;;;11.73;80.36
54592;BME280;40488;48.558;18.150;2022-10-13T03:05:34;100311.88;;;11.71;80.30
54592;BME280;40488;48.558;18.150;2022-10-13T03:08:05;100315.28;;;11.69;80.68
54592;BME280;40488;48.558;18.150;2022-10-13T03:10:34;100311.03;;;11.68;80.30
54592;BME280;40488;48.558;18.150;2022-10-13T03:13:03;100308.41;;;11.65;80.29
54592;BME280;40488;48.558;18.150;2022-10-13T03:15:32;100313.59;;;11.68;80.39
54592;BME280;40488;48.558;18.150;2022-10-13T03:18:03;100316.16;;;11.72;80.21
54592;BME280;40488;48.558;18.150;2022-10-13T03:20:32;100311.91;;;11.74;80.04
54592;BME280;40488;48.558;18.150;2022-10-13T03:23:01;100313.63;;;11.75;80.24
54592;BME280;40488;48.558;18.150;2022-10-13T03:25:31;100305.97;;;11.75;79.96
54592;BME280;40488;48.558;18.150;2022-10-13T03:28:00;100300.84;;;11.75;79.97
54592;BME280;40488;48.558;18.150;2022-10-13T03:30:29;100312.78;;;11.76;80.03
54592;BME280;40488;48.558;18.150;2022-10-13T03:32:58;100304.28;;;11.80;79.87
54592;BME280;40488;48.558;18.150;2022-10-13T03:35:27;100293.19;;;11.80;79.97
54592;BME280;40488;48.558;18.150;2022-10-13T03:37:56;100302.56;;;11.79;79.99
54592;BME280;40488;48.558;18.150;2022-10-13T03:40:26;100298.28;;;11.78;79.90
54592;BME280;40488;48.558;18.150;2022-10-13T03:42:56;100307.69;;;11.79;79.96
54592;BME280;40488;48.558;18.150;2022-10-13T03:45:26;100306.84;;;11.80;79.69
54592;BME280;40488;48.558;18.150;2022-10-13T03:47:54;100311.06;;;11.78;79.71
54592;BME280;40488;48.558;18.150;2022-10-13T03:50:24;100304.28;;;11.80;79.79
54592;BME280;40488;48.558;18.150;2022-10-13T03:52:53;100305.97;;;11.81;79.78
54592;BME280;40488;48.558;18.150;2022-10-13T03:55:22;100304.28;;;11.80;79.58
54592;BME280;40488;48.558;18.150;2022-10-13T03:57:51;100305.94;;;11.78;79.77
54592;BME280;40488;48.558;18.150;2022-10-13T04:00:21;100311.06;;;11.78;79.41
54592;BME280;40488;48.558;18.150;2022-10-13T04:02:50;100308.50;;;11.77;79.53
54592;BME280;40488;48.558;18.150;2022-10-13T04:05:18;100302.56;;;11.79;79.57
54592;BME280;40488;48.558;18.150;2022-10-13T04:07:47;100312.81;;;11.85;79.61
54592;BME280;40488;48.558;18.150;2022-10-13T04:10:17;100306.84;;;11.88;79.57
54592;BME280;40488;48.558;18.150;2022-10-13T04:12:48;100306.00;;;11.90;79.55
54592;BME280;40488;48.558;18.150;2022-10-13T04:15:17;100307.72;;;11.88;79.52
54592;BME280;40488;48.558;18.150;2022-10-13T04:17:47;100289.78;;;11.82;79.48
54592;BME280;40488;48.558;18.150;2022-10-13T04:20:16;100288.94;;;11.80;79.36
54592;BME280;40488;48.558;18.150;2022-10-13T04:22:44;100298.34;;;11.95;79.47
54592;BME280;40488;48.558;18.150;2022-10-13T04:25:13;100306.03;;;11.96;79.13
54592;BME280;40488;48.558;18.150;2022-10-13T04:27:42;100295.78;;;11.93;79.29
54592;BME280;40488;48.558;18.150;2022-10-13T04:30:11;100300.06;;;11.94;79.28
54592;BME280;40488;48.558;18.150;2022-10-13T04:32:39;100306.91;;;11.97;79.11
54592;BME280;40488;48.558;18.150;2022-10-13T04:35:12;100300.94;;;11.99;79.27
54592;BME280;40488;48.558;18.150;2022-10-13T04:37:41;100295.81;;;11.99;79.17
54592;BME280;40488;48.558;18.150;2022-10-13T04:40:11;100300.09;;;11.99;79.18
54592;BME280;40488;48.558;18.150;2022-10-13T04:42:41;100295.81;;;12.02;79.17
54592;BME280;40488;48.558;18.150;2022-10-13T04:45:10;100294.97;;;12.00;79.16
54592;BME280;40488;48.558;18.150;2022-10-13T04:47:40;100250.53;;;11.73;79.04
54592;BME280;40488;48.558;18.150;2022-10-13T04:50:09;100294.97;;;12.00;78.83
54592;BME280;40488;48.558;18.150;2022-10-13T04:52:39;100293.25;;;12.02;78.73
54592;BME280;40488;48.558;18.150;2022-10-13T04:55:08;100306.06;;;12.02;78.61
54592;BME280;40488;48.558;18.150;2022-10-13T04:57:37;100291.56;;;11.98;78.57
54592;BME280;40488;48.558;18.150;2022-10-13T05:00:07;100297.53;;;12.00;78.57
54592;BME280;40488;48.558;18.150;2022-10-13T05:02:36;100297.53;;;12.00;78.57
54592;BME280;40488;48.558;18.150;2022-10-13T05:05:06;100302.66;;;12.02;78.91
54592;BME280;40488;48.558;18.150;2022-10-13T05:07:35;100295.00;;;12.02;78.94
54592;BME280;40488;48.558;18.150;2022-10-13T05:10:06;100299.25;;;12.06;79.13
54592;BME280;40488;48.558;18.150;2022-10-13T05:12:35;100301.81;;;12.07;79.23
54592;BME280;40488;48.558;18.150;2022-10-13T05:15:04;100303.50;;;12.07;79.15
54592;BME280;40488;48.558;18.150;2022-10-13T05:17:34;100306.94;;;12.10;79.25
54592;BME280;40488;48.558;18.150;2022-10-13T05:20:08;100296.72;;;12.14;79.32
54592;BME280;40488;48.558;18.150;2022-10-13T05:22:37;100295.88;;;12.12;79.33
54592;BME280;40488;48.558;18.150;2022-10-13T05:25:08;100300.94;;;12.05;79.37
54592;BME280;40488;48.558;18.150;2022-10-13T05:27:37;100306.06;;;12.05;79.22
54592;BME280;40488;48.558;18.150;2022-10-13T05:30:09;100303.50;;;12.01;79.71
54592;BME280;40488;48.558;18.150;2022-10-13T05:32:38;100307.78;;;12.06;79.85
54592;BME280;40488;48.558;18.150;2022-10-13T05:35:08;100294.13;;;12.07;79.81
54592;BME280;40488;48.558;18.150;2022-10-13T05:37:39;100306.09;;;12.15;80.10
54592;BME280;40488;48.558;18.150;2022-10-13T05:40:10;100306.97;;;12.20;79.64
54592;BME280;40488;48.558;18.150;2022-10-13T05:42:39;100295.88;;;12.18;79.61
54592;BME280;40488;48.558;18.150;2022-10-13T05:45:10;100312.09;;;12.23;79.44
54592;BME280;40488;48.558;18.150;2022-10-13T05:47:39;100311.25;;;12.25;79.27
54592;BME280;40488;48.558;18.150;2022-10-13T05:50:09;100306.13;;;12.25;79.21
54592;BME280;40488;48.558;18.150;2022-10-13T05:52:39;100302.69;;;12.22;79.04
54592;BME280;40488;48.558;18.150;2022-10-13T05:55:13;100308.69;;;12.30;78.98
54592;BME280;40488;48.558;18.150;2022-10-13T05:57:45;100307.88;;;12.31;78.87
54592;BME280;40488;48.558;18.150;2022-10-13T06:00:18;100299.31;;;12.29;78.79
54592;BME280;40488;48.558;18.150;2022-10-13T06:02:49;100313.84;;;12.33;78.71
54592;BME280;40488;48.558;18.150;2022-10-13T06:05:23;100311.28;;;12.33;78.44
54592;BME280;40488;48.558;18.150;2022-10-13T06:07:55;100314.66;;;12.32;78.51
54592;BME280;40488;48.558;18.150;2022-10-13T06:10:26;100307.84;;;12.28;78.19
54592;BME280;40488;48.558;18.150;2022-10-13T06:12:55;100315.53;;;12.31;78.24
54592;BME280;40488;48.558;18.150;2022-10-13T06:15:23;100304.41;;;12.29;77.89
54592;BME280;40488;48.558;18.150;2022-10-13T06:17:55;100308.72;;;12.33;77.89
54592;BME280;40488;48.558;18.150;2022-10-13T06:20:24;100312.97;;;12.34;77.80
54592;BME280;40488;48.558;18.150;2022-10-13T06:22:54;100318.94;;;12.39;77.71
54592;BME280;40488;48.558;18.150;2022-10-13T06:25:22;100299.31;;;12.29;77.59
54592;BME280;40488;48.558;18.150;2022-10-13T06:27:52;100316.41;;;12.45;77.54
54592;BME280;40488;48.558;18.150;2022-10-13T06:30:21;100314.72;;;12.47;77.55
54592;BME280;40488;48.558;18.150;2022-10-13T06:32:50;100321.56;;;12.57;77.36
54592;BME280;40488;48.558;18.150;2022-10-13T06:35:20;100320.72;;;12.61;77.54
54592;BME280;40488;48.558;18.150;2022-10-13T06:37:49;100316.47;;;12.69;77.34
54592;BME280;40488;48.558;18.150;2022-10-13T06:40:19;100319.03;;;12.69;77.24
54592;BME280;40488;48.558;18.150;2022-10-13T06:42:48;100316.44;;;12.70;77.09
54592;BME280;40488;48.558;18.150;2022-10-13T06:45:23;100324.97;;;12.72;76.94
54592;BME280;40488;48.558;18.150;2022-10-13T06:47:51;100321.59;;;12.73;76.60
54592;BME280;40488;48.558;18.150;2022-10-13T06:50:20;100323.28;;;12.76;76.70
54592;BME280;40488;48.558;18.150;2022-10-13T06:52:50;100325.00;;;12.80;76.57
54592;BME280;40488;48.558;18.150;2022-10-13T06:55:19;100315.59;;;12.77;76.56
54592;BME280;40488;48.558;18.150;2022-10-13T06:57:48;100327.56;;;12.92;76.46
54592;BME280;40488;48.558;18.150;2022-10-13T07:00:17;100329.25;;;12.96;76.64
54592;BME280;40488;48.558;18.150;2022-10-13T07:02:49;100319.84;;;12.98;76.30
54592;BME280;40488;48.558;18.150;2022-10-13T07:05:19;100319.03;;;13.02;76.59
54592;BME280;40488;48.558;18.150;2022-10-13T07:07:50;100318.16;;;13.03;76.30
54592;BME280;40488;48.558;18.150;2022-10-13T07:10:20;100325.88;;;13.15;76.35
54592;BME280;40488;48.558;18.150;2022-10-13T07:12:49;100323.31;;;13.21;76.11
54592;BME280;40488;48.558;18.150;2022-10-13T07:15:17;100324.16;;;13.35;75.98
54592;BME280;40488;48.558;18.150;2022-10-13T07:17:50;100321.56;;;13.41;75.80
54592;BME280;40488;48.558;18.150;2022-10-13T07:20:20;100313.00;;;13.39;75.44
54592;BME280;40488;48.558;18.150;2022-10-13T07:22:52;100308.75;;;13.37;74.65
54592;BME280;40488;48.558;18.150;2022-10-13T07:25:21;100281.44;;;13.25;75.11
54592;BME280;40488;48.558;18.150;2022-10-13T07:27:49;100311.28;;;13.52;74.67
54592;BME280;40488;48.558;18.150;2022-10-13T07:30:18;100305.31;;;13.53;74.72
54592;BME280;40488;48.558;18.150;2022-10-13T07:32:47;100260.91;;;13.28;74.22
54592;BME280;40488;48.558;18.150;2022-10-13T07:35:18;100307.84;;;13.56;74.66
54592;BME280;40488;48.558;18.150;2022-10-13T07:37:51;100302.69;;;13.61;74.26
54592;BME280;40488;48.558;18.150;2022-10-13T07:40:19;100301.00;;;13.63;74.16
54592;BME280;40488;48.558;18.150;2022-10-13T07:42:48;100316.38;;;13.69;73.95
54592;BME280;40488;48.558;18.150;2022-10-13T07:45:17;100317.22;;;13.72;73.55
54592;BME280;40488;48.558;18.150;2022-10-13T07:47:46;100312.91;;;13.76;73.60
54592;BME280;40488;48.558;18.150;2022-10-13T07:50:15;100289.00;;;13.71;73.47
54592;BME280;40488;48.558;18.150;2022-10-13T07:52:45;100306.91;;;13.86;73.19
54592;BME280;40488;48.558;18.150;2022-10-13T07:55:14;100306.84;;;13.92;73.40
54592;BME280;40488;48.558;18.150;2022-10-13T07:57:43;100309.41;;;13.98;73.77
54592;BME280;40488;48.558;18.150;2022-10-13T08:00:12;100305.09;;;14.04;73.63
54592;BME280;40488;48.558;18.150;2022-10-13T08:02:41;100313.66;;;14.08;73.38
54592;BME280;40488;48.558;18.150;2022-10-13T08:05:09;100314.50;;;14.07;72.93
54592;BME280;40488;48.558;18.150;2022-10-13T08:07:38;100309.38;;;14.07;72.98
54592;BME280;40488;48.558;18.150;2022-10-13T08:10:09;100305.94;;;14.08;72.95
54592;BME280;40488;48.558;18.150;2022-10-13T08:12:39;100313.63;;;14.11;73.21
54592;BME280;40488;48.558;18.150;2022-10-13T08:15:08;100308.50;;;14.13;73.46
54592;BME280;40488;48.558;18.150;2022-10-13T08:17:37;100305.91;;;14.11;73.17
54592;BME280;40488;48.558;18.150;2022-10-13T08:20:06;100288.84;;;14.07;73.37
54592;BME280;40488;48.558;18.150;2022-10-13T08:22:35;100299.09;;;14.13;73.16
54592;BME280;40488;48.558;18.150;2022-10-13T08:25:04;100297.31;;;14.18;73.38
54592;BME280;40488;48.558;18.150;2022-10-13T08:27:36;100299.88;;;14.23;73.41
54592;BME280;40488;48.558;18.150;2022-10-13T08:30:18;100295.56;;;14.23;72.94
54592;BME280;40488;48.558;18.150;2022-10-13T08:32:47;100295.59;;;14.32;73.49
54592;BME280;40488;48.558;18.150;2022-10-13T08:35:15;100295.53;;;14.41;73.27
54592;BME280;40488;48.558;18.150;2022-10-13T08:37:44;100290.31;;;14.47;73.07
54592;BME280;40488;48.558;18.150;2022-10-13T08:40:17;100289.41;;;14.54;73.14
54592;BME280;40488;48.558;18.150;2022-10-13T08:42:48;100288.56;;;14.58;72.60
54592;BME280;40488;48.558;18.150;2022-10-13T08:45:25;100292.78;;;14.64;73.20
54592;BME280;40488;48.558;18.150;2022-10-13T08:48:12;100288.47;;;14.70;72.90
54592;BME280;40488;48.558;18.150;2022-10-13T08:50:45;100282.38;;;14.81;73.02
54592;BME280;40488;48.558;18.150;2022-10-13T08:53:22;100291.78;;;14.85;72.11
54592;BME280;40488;48.558;18.150;2022-10-13T08:55:55;100295.16;;;14.88;72.51
54592;BME280;40488;48.558;18.150;2022-10-13T08:58:28;100294.19;;;15.00;72.42
54592;BME280;40488;48.558;18.150;2022-10-13T09:01:10;100281.28;;;15.09;71.88
54592;BME280;40488;48.558;18.150;2022-10-13T09:03:48;100286.31;;;15.21;71.84
54592;BME280;40488;48.558;18.150;2022-10-13T09:06:22;100282.75;;;15.32;71.63
54592;BME280;40488;48.558;18.150;2022-10-13T09:08:57;100280.13;;;15.37;71.46
54592;BME280;40488;48.558;18.150;2022-10-13T09:11:27;100285.22;;;15.46;71.63
54592;BME280;40488;48.558;18.150;2022-10-13T09:14:02;100272.22;;;15.55;71.60
54592;BME280;40488;48.558;18.150;2022-10-13T09:16:34;100277.22;;;15.70;71.43
54592;BME280;40488;48.558;18.150;2022-10-13T09:19:16;100272.78;;;15.83;71.22
54592;BME280;40488;48.558;18.150;2022-10-13T09:21:47;100253.03;;;15.83;70.71
54592;BME280;40488;48.558;18.150;2022-10-13T09:24:18;100275.88;;;16.06;70.16
54592;BME280;40488;48.558;18.150;2022-10-13T09:26:49;100277.44;;;16.18;70.13
54592;BME280;40488;48.558;18.150;2022-10-13T09:29:24;100266.09;;;16.31;69.21
54592;BME280;40488;48.558;18.150;2022-10-13T09:32:07;100268.38;;;16.50;68.87
54592;BME280;40488;48.558;18.150;2022-10-13T09:34:44;100272.50;;;16.65;68.37
54592;BME280;40488;48.558;18.150;2022-10-13T09:37:18;100265.63;;;16.64;68.17
54592;BME280;40488;48.558;18.150;2022-10-13T09:39:59;100264.56;;;16.75;67.85
54592;BME280;40488;48.558;18.150;2022-10-13T09:42:30;100264.47;;;16.80;68.05
54592;BME280;40488;48.558;18.150;2022-10-13T09:45:12;100258.09;;;17.02;67.46
54592;BME280;40488;48.558;18.150;2022-10-13T09:47:49;100232.97;;;17.12;67.17
54592;BME280;40488;48.558;18.150;2022-10-13T09:50:22;100248.69;;;17.46;66.62
54592;BME280;40488;48.558;18.150;2022-10-13T09:53:09;100239.16;;;17.48;66.25
54592;BME280;40488;48.558;18.150;2022-10-13T09:55:43;100247.09;;;17.38;65.87
54592;BME280;40488;48.558;18.150;2022-10-13T09:58:24;100242.94;;;17.31;66.13
54592;BME280;40488;48.558;18.150;2022-10-13T10:00:57;100244.47;;;17.40;65.72
54592;BME280;40488;48.558;18.150;2022-10-13T10:03:30;100241.34;;;17.69;65.53
54592;BME280;40488;48.558;18.150;2022-10-13T10:06:02;100240.91;;;17.90;65.33
54592;BME280;40488;48.558;18.150;2022-10-13T10:08:38;100243.16;;;18.05;64.55
54592;BME280;40488;48.558;18.150;2022-10-13T10:11:33;100249.22;;;18.04;64.19
54592;BME280;40488;48.558;18.150;2022-10-13T10:14:16;100242.88;;;18.17;64.07
54592;BME280;40488;48.558;18.150;2022-10-13T10:16:54;100241.00;;;18.24;63.88
54592;BME280;40488;48.558;18.150;2022-10-13T10:19:30;100236.31;;;18.04;63.94
54592;BME280;40488;48.558;18.150;2022-10-13T10:22:09;100234.09;;;17.87;64.16
54592;BME280;40488;48.558;18.150;2022-10-13T10:24:47;100229.94;;;17.79;64.30
54592;BME280;40488;48.558;18.150;2022-10-13T10:27:25;100220.69;;;17.69;64.49
54592;BME280;40488;48.558;18.150;2022-10-13T10:29:59;100221.34;;;17.78;64.63
54592;BME280;40488;48.558;18.150;2022-10-13T10:32:39;100206.75;;;17.76;64.81
54592;BME280;40488;48.558;18.150;2022-10-13T10:35:13;100219.31;;;17.92;64.83
54592;BME280;40488;48.558;18.150;2022-10-13T10:37:56;100221.72;;;18.00;64.65
54592;BME280;40488;48.558;18.150;2022-10-13T10:40:35;100212.16;;;18.05;64.69
54592;BME280;40488;48.558;18.150;2022-10-13T10:43:22;100218.75;;;18.18;64.51
54592;BME280;40488;48.558;18.150;2022-10-13T10:45:55;100209.50;;;18.08;64.34
54592;BME280;40488;48.558;18.150;2022-10-13T10:48:31;100215.19;;;18.22;64.06
54592;BME280;40488;48.558;18.150;2022-10-13T10:51:05;100212.69;;;18.56;63.95
54592;BME280;40488;48.558;18.150;2022-10-13T10:53:38;100197.78;;;18.65;63.49
54592;BME280;40488;48.558;18.150;2022-10-13T10:56:14;100209.53;;;18.79;63.64
54592;BME280;40488;48.558;18.150;2022-10-13T10:58:48;100194.84;;;18.79;63.50
54592;BME280;40488;48.558;18.150;2022-10-13T11:01:32;100202.03;;;18.68;63.35
54592;BME280;40488;48.558;18.150;2022-10-13T11:04:30;100202.63;;;18.44;63.50
54592;BME280;40488;48.558;18.150;2022-10-13T11:07:02;100200.09;;;18.42;63.74
54592;BME280;40488;48.558;18.150;2022-10-13T11:15:28;100191.81;;;18.28;64.42
54592;BME280;40488;48.558;18.150;2022-10-13T11:17:59;100189.28;;;18.25;64.46
54592;BME280;40488;48.558;18.150;2022-10-13T11:23:29;100176.63;;;18.15;64.94
54592;BME280;40488;48.558;18.150;2022-10-13T11:26:29;100173.16;;;18.14;65.07
54592;BME280;40488;48.558;18.150;2022-10-13T11:28:58;100160.31;;;18.13;65.36
54592;BME280;40488;48.558;18.150;2022-10-13T11:31:30;100169.66;;;18.18;65.21
54592;BME280;40488;48.558;18.150;2022-10-13T11:34:02;100164.47;;;18.18;65.32
54592;BME280;40488;48.558;18.150;2022-10-13T11:36:49;100157.81;;;18.08;65.10
54592;BME280;40488;48.558;18.150;2022-10-13T11:51:06;100132.50;;;18.22;64.83
54592;BME280;40488;48.558;18.150;2022-10-13T11:53:51;100141.13;;;18.23;64.80
54592;BME280;40488;48.558;18.150;2022-10-13T11:56:32;100147.13;;;18.23;64.85
54592;BME280;40488;48.558;18.150;2022-10-13T11:59:18;100139.97;;;18.34;64.56
54592;BME280;40488;48.558;18.150;2022-10-13T12:01:51;100143.34;;;18.36;64.68
54592;BME280;40488;48.558;18.150;2022-10-13T12:04:22;100133.53;;;18.50;64.49
54592;BME280;40488;48.558;18.150;2022-10-13T12:06:54;100134.34;;;18.52;64.29
54592;BME280;40488;48.558;18.150;2022-10-13T12:09:24;100116.41;;;18.46;64.17
54592;BME280;40488;48.558;18.150;2022-10-13T12:12:00;100120.41;;;18.58;64.34
54592;BME280;40488;48.558;18.150;2022-10-13T12:14:31;100118.69;;;18.58;64.41
54592;BME280;40488;48.558;18.150;2022-10-13T12:17:03;100120.72;;;18.47;64.23
54592;BME280;40488;48.558;18.150;2022-10-13T12:19:32;100121.69;;;18.42;64.38
54592;BME280;40488;48.558;18.150;2022-10-13T12:22:01;100122.84;;;18.30;64.06
54592;BME280;40488;48.558;18.150;2022-10-13T12:24:30;100124.00;;;18.19;64.22
54592;BME280;40488;48.558;18.150;2022-10-13T12:27:09;100120.56;;;18.18;64.22
54592;BME280;40488;48.558;18.150;2022-10-13T12:29:39;100117.88;;;18.21;64.53
54592;BME280;40488;48.558;18.150;2022-10-13T12:32:18;100107.34;;;18.30;64.81
54592;BME280;40488;48.558;18.150;2022-10-13T12:34:48;100105.31;;;18.41;64.57
54592;BME280;40488;48.558;18.150;2022-10-13T12:37:25;100104.22;;;18.51;63.92
54592;BME280;40488;48.558;18.150;2022-10-13T12:39:55;100104.97;;;18.56;63.44
54592;BME280;40488;48.558;18.150;2022-10-13T12:42:29;100090.97;;;18.63;63.44
54592;BME280;40488;48.558;18.150;2022-10-13T12:45:00;100102.84;;;18.70;63.24
54592;BME280;40488;48.558;18.150;2022-10-13T12:47:47;100094.03;;;18.78;62.98
54592;BME280;40488;48.558;18.150;2022-10-13T12:50:32;100094.28;;;18.99;62.57
54592;BME280;40488;48.558;18.150;2022-10-13T12:53:13;100091.97;;;18.89;62.47
54592;BME280;40488;48.558;18.150;2022-10-13T12:55:54;100086.41;;;18.73;62.79
54592;BME280;40488;48.558;18.150;2022-10-13T12:58:29;100085.59;;;18.71;62.70
54592;BME280;40488;48.558;18.150;2022-10-13T13:01:19;100089.19;;;18.65;62.83
54592;BME280;40488;48.558;18.150;2022-10-13T13:03:55;100080.97;;;18.82;63.15
54592;BME280;40488;48.558;18.150;2022-10-13T13:06:29;100074.00;;;18.84;62.84
54592;BME280;40488;48.558;18.150;2022-10-13T13:09:18;100075.28;;;18.69;62.99
54592;BME280;40488;48.558;18.150;2022-10-13T13:12:00;100069.97;;;18.74;62.91
54592;BME280;40488;48.558;18.150;2022-10-13T13:14:37;100072.06;;;18.92;62.65
54592;BME280;40488;48.558;18.150;2022-10-13T13:17:11;100064.66;;;19.09;62.11
54592;BME280;40488;48.558;18.150;2022-10-13T13:19:54;100057.44;;;19.20;61.54
54592;BME280;40488;48.558;18.150;2022-10-13T13:22:24;100059.25;;;19.46;61.00
54592;BME280;40488;48.558;18.150;2022-10-13T13:24:53;100057.75;;;19.67;60.57
54592;BME280;40488;48.558;18.150;2022-10-13T13:27:26;100052.13;;;19.80;60.58
54592;BME280;40488;48.558;18.150;2022-10-13T13:29:57;100051.72;;;19.66;59.80
54592;BME280;40488;48.558;18.150;2022-10-13T13:32:26;100052.41;;;19.71;59.69
54592;BME280;40488;48.558;18.150;2022-10-13T13:34:57;100050.28;;;19.84;59.56